Time;durP1;ratioP1;P1;durP2;ratioP2;P2;SDS_P1;SDS_P2;PMS_P1;PMS_P2;Temp;Humidity;BMP_temperature;BMP_pressure;BME280_temperature;BME280_humidity;BME280_pressure;Samples;Min_cycle;Max_cycle;Signal;HPM_P1;HPM_P2
2022/03/21 00:00:55;;;;;;;76.93;37.22;;;1.70;79.80;;;;;;4917179;29;20040;-67
2022/03/21 00:03:25;;;;;;;73.07;38.22;;;1.60;80.00;;;;;;4936519;29;20051;-67
2022/03/21 00:05:52;;;;;;;87.35;39.67;;;1.50;80.10;;;;;;4919508;29;20052;-68
2022/03/21 00:08:22;;;;;;;79.05;40.00;;;1.50;80.20;;;;;;4937616;29;20048;-67
2022/03/21 00:10:52;;;;;;;74.90;39.35;;;1.40;80.40;;;;;;4937349;29;20414;-67
2022/03/21 00:13:21;;;;;;;82.38;40.58;;;1.40;80.50;;;;;;4937143;29;20051;-68
2022/03/21 00:15:52;;;;;;;80.57;40.40;;;1.30;80.60;;;;;;4927168;29;20394;-69
2022/03/21 00:18:21;;;;;;;79.85;39.58;;;1.30;80.80;;;;;;4918614;29;20063;-68
2022/03/21 00:20:50;;;;;;;73.95;39.88;;;1.20;80.90;;;;;;4918599;29;20055;-67
2022/03/21 00:23:18;;;;;;;79.30;40.17;;;1.20;81.00;;;;;;4901374;29;20054;-67
2022/03/21 00:25:46;;;;;;;81.35;41.20;;;1.10;81.10;;;;;;4916620;29;20055;-68
2022/03/21 00:28:14;;;;;;;80.60;42.05;;;1.00;81.20;;;;;;4885785;29;20052;-67
2022/03/21 00:30:43;;;;;;;82.70;41.83;;;1.00;81.30;;;;;;4918272;29;20040;-68
2022/03/21 00:33:11;;;;;;;86.60;42.20;;;0.90;81.40;;;;;;4918293;29;20056;-67
2022/03/21 00:35:39;;;;;;;78.30;42.45;;;0.80;81.60;;;;;;4900373;29;20047;-67
2022/03/21 00:38:11;;;;;;;74.60;38.72;;;0.80;81.70;;;;;;4930638;29;20532;-67
2022/03/21 00:40:39;;;;;;;75.60;39.50;;;0.80;81.70;;;;;;4919729;29;20398;-67
2022/03/21 00:43:07;;;;;;;80.60;38.83;;;0.70;81.80;;;;;;4934656;29;20056;-67
2022/03/21 00:45:34;;;;;;;72.15;39.58;;;0.70;81.90;;;;;;4934156;29;20083;-67
2022/03/21 00:48:02;;;;;;;87.00;41.05;;;0.60;82.00;;;;;;4933571;29;20513;-67
2022/03/21 00:50:30;;;;;;;71.93;38.85;;;0.60;82.10;;;;;;4917386;29;20512;-67
2022/03/21 00:52:57;;;;;;;78.55;37.97;;;0.60;82.20;;;;;;4933071;29;20409;-67
2022/03/21 00:55:28;;;;;;;74.07;38.05;;;0.50;82.20;;;;;;4932324;29;20035;-68
2022/03/21 00:57:57;;;;;;;82.43;43.80;;;0.50;82.20;;;;;;4934031;29;20047;-67
2022/03/21 01:00:27;;;;;;;83.38;40.67;;;0.50;82.30;;;;;;4917631;29;20070;-67
2022/03/21 01:02:56;;;;;;;85.05;43.92;;;0.50;82.40;;;;;;4935006;29;20051;-67
2022/03/21 01:05:25;;;;;;;93.38;47.78;;;0.50;82.40;;;;;;4935592;29;20074;-67
2022/03/21 01:07:54;;;;;;;105.63;50.65;;;0.50;82.60;;;;;;4918261;29;20491;-68
2022/03/21 01:10:23;;;;;;;102.05;51.13;;;0.50;82.70;;;;;;4935016;29;20040;-67
2022/03/21 01:12:51;;;;;;;106.65;50.33;;;0.50;82.80;;;;;;4932176;29;20055;-67
2022/03/21 01:15:21;;;;;;;99.60;49.95;;;0.50;82.90;;;;;;4935451;29;20069;-68
2022/03/21 01:17:49;;;;;;;93.88;48.53;;;0.50;83.10;;;;;;4932536;29;20260;-67
2022/03/21 01:20:19;;;;;;;97.53;50.35;;;0.40;83.20;;;;;;4934528;29;20040;-67
2022/03/21 01:22:47;;;;;;;109.68;53.78;;;0.30;83.30;;;;;;4935022;29;20421;-67
2022/03/21 01:25:16;;;;;;;102.82;53.10;;;0.30;83.50;;;;;;4917736;29;20055;-67
2022/03/21 01:27:44;;;;;;;121.22;55.78;;;0.30;83.70;;;;;;4934845;29;20048;-67
2022/03/21 01:30:13;;;;;;;111.65;52.35;;;0.30;83.80;;;;;;4917370;29;20051;-68
2022/03/21 01:32:43;;;;;;;122.35;55.33;;;0.30;83.90;;;;;;4916031;29;20052;-67
2022/03/21 01:35:18;;;;;;;105.88;52.03;;;0.30;84.00;;;;;;4933333;29;20411;-68
2022/03/21 01:37:47;;;;;;;121.90;56.05;;;0.30;84.20;;;;;;4932428;29;20406;-68
2022/03/21 01:40:16;;;;;;;107.18;50.35;;;0.30;84.30;;;;;;4933481;29;20489;-68
2022/03/21 01:42:46;;;;;;;107.95;50.88;;;0.20;84.30;;;;;;4918765;29;20054;-67
2022/03/21 01:45:19;;;;;;;107.78;52.80;;;0.20;84.40;;;;;;4919289;29;20401;-68
2022/03/21 01:47:47;;;;;;;111.87;52.50;;;0.00;84.50;;;;;;4934574;29;20059;-67
2022/03/21 01:50:15;;;;;;;116.97;55.28;;;0.00;84.80;;;;;;4935002;29;20043;-67
2022/03/21 01:52:43;;;;;;;107.82;51.97;;;0.00;84.80;;;;;;4932856;29;20055;-68
2022/03/21 01:58:00;;;;;;;104.25;49.85;;;0.00;84.80;;;;;;4930779;29;20504;-67
2022/03/21 02:00:28;;;;;;;105.32;50.88;;;-0.10;85.00;;;;;;4934270;29;20059;-67
2022/03/21 02:02:56;;;;;;;97.63;47.40;;;-0.10;85.20;;;;;;4932784;29;20066;-67
2022/03/21 02:05:24;;;;;;;115.65;53.63;;;-0.10;85.10;;;;;;4916514;29;20048;-68
2022/03/21 02:07:53;;;;;;;139.35;58.60;;;-0.20;85.20;;;;;;4916622;29;21688;-67
2022/03/21 02:10:21;;;;;;;111.43;50.85;;;-0.10;85.40;;;;;;4934399;29;20048;-67
2022/03/21 02:12:48;;;;;;;104.43;47.25;;;-0.20;85.30;;;;;;4933305;29;20043;-67
2022/03/21 02:15:17;;;;;;;93.80;45.85;;;-0.20;85.30;;;;;;4934372;29;20048;-67
2022/03/21 02:17:46;;;;;;;95.82;48.63;;;-0.20;85.40;;;;;;4916839;29;20470;-68
2022/03/21 02:20:18;;;;;;;94.40;48.15;;;-0.20;85.40;;;;;;4933731;29;20044;-67
2022/03/21 02:22:56;;;;;;;97.35;47.40;;;-0.20;85.50;;;;;;4918343;29;20047;-68
2022/03/21 02:25:34;;;;;;;97.13;48.33;;;-0.30;85.50;;;;;;4934847;29;20051;-68
2022/03/21 02:28:06;;;;;;;114.90;53.58;;;-0.40;85.50;;;;;;4918479;29;20052;-67
2022/03/21 02:30:38;;;;;;;96.17;48.60;;;-0.40;85.50;;;;;;4935298;29;20047;-68
2022/03/21 02:33:06;;;;;;;99.90;51.17;;;-0.40;85.70;;;;;;4939466;29;20039;-68
2022/03/21 02:35:35;;;;;;;111.40;50.95;;;-0.40;85.60;;;;;;4940127;29;20051;-68
2022/03/21 02:38:03;;;;;;;103.43;52.03;;;-0.40;85.70;;;;;;4933173;29;20546;-68
2022/03/21 02:40:30;;;;;;;104.82;51.90;;;-0.40;85.60;;;;;;4916489;29;20055;-67
2022/03/21 02:42:58;;;;;;;96.03;49.63;;;-0.40;85.70;;;;;;4911427;29;20051;-68
2022/03/21 02:45:26;;;;;;;92.72;47.28;;;-0.40;85.60;;;;;;4933715;29;20056;-68
2022/03/21 02:47:53;;;;;;;103.00;49.35;;;-0.50;85.60;;;;;;4933570;29;20047;-68
2022/03/21 02:50:55;;;;;;;99.13;48.63;;;-0.50;85.60;;;;;;4934904;29;20062;-68
2022/03/21 02:53:24;;;;;;;98.57;51.60;;;-0.60;85.70;;;;;;4916828;29;20402;-68
2022/03/21 02:55:55;;;;;;;116.38;55.28;;;-0.60;85.80;;;;;;4933073;29;20829;-68
2022/03/21 02:58:23;;;;;;;108.28;51.60;;;-0.60;85.90;;;;;;4914905;29;20051;-68
2022/03/21 03:00:51;;;;;;;128.10;60.00;;;-0.60;85.80;;;;;;4933495;29;20047;-68
2022/03/21 03:03:18;;;;;;;112.95;54.22;;;-0.50;85.80;;;;;;4933369;29;20040;-68
2022/03/21 03:05:46;;;;;;;124.57;55.75;;;-0.60;85.80;;;;;;4935151;29;20391;-68
2022/03/21 03:08:14;;;;;;;110.88;53.55;;;-0.60;85.80;;;;;;4937112;29;20039;-68
2022/03/21 03:10:41;;;;;;;131.60;58.38;;;-0.60;85.90;;;;;;4934039;29;20515;-68
2022/03/21 03:13:09;;;;;;;118.22;56.10;;;-0.70;86.00;;;;;;4937328;29;20039;-68
2022/03/21 03:15:37;;;;;;;118.82;53.67;;;-0.60;86.10;;;;;;4937975;29;20063;-67
2022/03/21 03:18:04;;;;;;;107.00;54.65;;;-0.70;86.10;;;;;;4937223;29;20063;-67
2022/03/21 03:20:32;;;;;;;134.13;63.63;;;-0.70;86.10;;;;;;4936986;29;20036;-67
2022/03/21 03:23:02;;;;;;;128.80;61.90;;;-0.70;86.40;;;;;;4936635;29;20540;-67
2022/03/21 03:25:29;;;;;;;148.57;66.80;;;-0.70;86.40;;;;;;4937145;29;20047;-67
2022/03/21 03:27:57;;;;;;;134.60;65.30;;;-0.70;86.40;;;;;;4936760;29;20565;-67
2022/03/21 03:30:25;;;;;;;119.50;59.08;;;-0.70;86.40;;;;;;4937242;29;20052;-67
2022/03/21 03:32:52;;;;;;;130.38;58.58;;;-0.70;86.40;;;;;;4936739;29;20044;-67
2022/03/21 03:35:20;;;;;;;143.15;66.03;;;-0.70;86.40;;;;;;4936296;29;20489;-67
2022/03/21 03:37:49;;;;;;;118.43;59.85;;;-0.70;86.50;;;;;;4935585;29;20405;-67
2022/03/21 03:40:17;;;;;;;139.10;62.15;;;-0.80;86.50;;;;;;4936895;29;20043;-67
2022/03/21 03:42:46;;;;;;;125.72;59.55;;;-0.80;86.60;;;;;;4937016;29;20506;-67
2022/03/21 03:45:14;;;;;;;127.43;63.08;;;-0.80;86.70;;;;;;4916553;29;20437;-67
2022/03/21 03:47:42;;;;;;;131.18;60.13;;;-0.90;86.80;;;;;;4932811;29;20433;-67
2022/03/21 03:50:10;;;;;;;121.07;57.80;;;-1.00;86.80;;;;;;4936059;29;20055;-67
2022/03/21 03:52:40;;;;;;;110.22;54.92;;;-1.10;87.00;;;;;;4936849;29;20405;-67
2022/03/21 03:55:08;;;;;;;130.48;61.63;;;-1.10;87.10;;;;;;4936601;29;20052;-67
2022/03/21 03:57:36;;;;;;;154.95;65.63;;;-1.10;87.10;;;;;;4934806;29;20039;-67
2022/03/21 04:00:05;;;;;;;148.60;67.65;;;-1.10;87.30;;;;;;4936243;29;20047;-67
2022/03/21 04:05:27;;;;;;;157.85;67.07;;;-1.00;87.20;;;;;;4934464;29;20051;-67
2022/03/21 04:07:54;;;;;;;125.40;59.28;;;-1.10;87.20;;;;;;4934352;29;20048;-68
2022/03/21 04:10:22;;;;;;;144.73;63.10;;;-1.10;87.20;;;;;;4933659;29;20466;-67
2022/03/21 04:12:50;;;;;;;129.35;59.25;;;-1.10;87.10;;;;;;4934364;29;20052;-67
2022/03/21 04:15:20;;;;;;;145.00;63.90;;;-1.10;87.10;;;;;;4935180;29;20047;-67
2022/03/21 04:17:50;;;;;;;162.88;70.47;;;-1.20;87.30;;;;;;4934041;29;20039;-67
2022/03/21 04:20:17;;;;;;;172.45;70.75;;;-1.20;87.50;;;;;;4935340;29;20059;-69
2022/03/21 04:22:45;;;;;;;152.95;70.90;;;-1.10;87.50;;;;;;4931428;29;20067;-68
2022/03/21 04:25:13;;;;;;;149.68;66.78;;;-1.10;87.60;;;;;;4935901;29;20051;-67
2022/03/21 04:27:41;;;;;;;132.55;63.20;;;-1.10;87.50;;;;;;4918778;29;20063;-67
2022/03/21 04:30:10;;;;;;;163.00;67.30;;;-1.10;87.50;;;;;;4935862;29;20055;-68
2022/03/21 04:32:38;;;;;;;158.32;70.47;;;-1.20;87.60;;;;;;4918355;29;20044;-68
2022/03/21 04:35:06;;;;;;;132.80;61.50;;;-1.10;87.70;;;;;;4935780;29;20043;-68
2022/03/21 04:37:34;;;;;;;162.40;68.88;;;-1.20;87.60;;;;;;4935659;29;20051;-68
2022/03/21 04:40:04;;;;;;;165.15;71.40;;;-1.20;87.60;;;;;;4918638;29;20066;-67
2022/03/21 04:42:31;;;;;;;138.82;62.60;;;-1.20;87.90;;;;;;4934657;29;20052;-67
2022/03/21 04:44:59;;;;;;;149.35;66.75;;;-1.20;87.90;;;;;;4934732;29;20489;-67
2022/03/21 04:47:27;;;;;;;150.75;66.18;;;-1.20;87.80;;;;;;4936214;29;20403;-67
2022/03/21 04:49:55;;;;;;;150.45;67.95;;;-1.30;87.80;;;;;;4919155;29;20047;-68
2022/03/21 04:52:23;;;;;;;125.68;59.13;;;-1.40;87.80;;;;;;4934954;29;20055;-68
2022/03/21 04:54:50;;;;;;;142.05;64.65;;;-1.40;87.90;;;;;;4918715;29;20490;-67
2022/03/21 04:57:25;;;;;;;148.65;65.63;;;-1.40;87.90;;;;;;4918461;29;20051;-67
2022/03/21 04:59:54;;;;;;;138.68;63.10;;;-1.50;88.00;;;;;;4917559;29;20052;-67
2022/03/21 05:02:22;;;;;;;133.98;59.75;;;-1.60;88.20;;;;;;4933620;29;20050;-68
2022/03/21 05:04:51;;;;;;;170.15;69.93;;;-1.60;88.20;;;;;;4935717;29;20050;-67
2022/03/21 05:07:19;;;;;;;150.82;66.75;;;-1.60;88.20;;;;;;4918461;29;20063;-67
2022/03/21 05:09:47;;;;;;;172.73;71.60;;;-1.60;88.30;;;;;;4934990;29;20044;-67
2022/03/21 05:12:15;;;;;;;135.18;61.38;;;-1.60;88.30;;;;;;4934763;29;20067;-67
2022/03/21 05:14:47;;;;;;;140.93;64.40;;;-1.60;88.20;;;;;;4934131;29;20051;-67
2022/03/21 05:17:17;;;;;;;162.13;70.03;;;-1.60;88.20;;;;;;4935342;29;20043;-68
2022/03/21 05:19:45;;;;;;;127.47;59.88;;;-1.60;88.20;;;;;;4919063;29;20048;-68
2022/03/21 05:22:12;;;;;;;132.40;61.25;;;-1.60;88.20;;;;;;4918449;29;20044;-66
2022/03/21 05:35:55;;;;;;;154.20;65.70;;;-1.70;88.40;;;;;;4933921;29;20048;-67
2022/03/21 05:38:27;;;;;;;164.30;68.40;;;-1.70;88.30;;;;;;4916582;29;20055;-67
2022/03/21 05:40:59;;;;;;;170.05;73.05;;;-1.70;88.20;;;;;;4930432;29;20430;-67
2022/03/21 05:43:28;;;;;;;136.40;65.32;;;-1.70;88.20;;;;;;4934865;29;20127;-67
2022/03/21 05:45:56;;;;;;;141.15;63.47;;;-1.70;88.20;;;;;;4934019;29;20066;-67
2022/03/21 05:51:10;;;;;;;133.70;58.40;;;-1.80;88.20;;;;;;4932651;29;20048;-68
2022/03/21 05:53:38;;;;;;;140.23;61.05;;;-1.90;88.40;;;;;;4933687;29;20036;-67
2022/03/21 05:56:13;;;;;;;117.88;55.65;;;-1.90;88.40;;;;;;4932630;29;20513;-68
2022/03/21 05:58:42;;;;;;;125.50;57.83;;;-2.00;88.40;;;;;;4932063;29;20032;-67
2022/03/21 06:01:15;;;;;;;140.27;62.40;;;-2.00;88.50;;;;;;4930071;29;20066;-68
2022/03/21 06:03:43;;;;;;;147.07;63.95;;;-2.10;88.60;;;;;;4915263;29;20469;-68
2022/03/21 06:06:11;;;;;;;149.63;65.97;;;-2.10;88.70;;;;;;4932190;29;20048;-71
2022/03/21 06:08:39;;;;;;;143.27;65.57;;;-2.00;88.90;;;;;;4915238;29;20046;-67
2022/03/21 06:11:08;;;;;;;159.85;68.03;;;-2.00;88.80;;;;;;4933017;29;20044;-67
2022/03/21 06:13:39;;;;;;;137.02;62.45;;;-1.90;88.70;;;;;;4932786;29;20059;-68
2022/03/21 06:16:07;;;;;;;160.05;66.82;;;-1.90;88.60;;;;;;4933443;29;20486;-68
2022/03/21 06:18:36;;;;;;;146.88;61.08;;;-1.90;88.50;;;;;;4933687;29;20044;-69
2022/03/21 06:21:06;;;;;;;148.75;64.88;;;-1.90;88.50;;;;;;4916988;29;20052;-69
2022/03/21 06:23:35;;;;;;;158.10;67.03;;;-2.00;88.60;;;;;;4933946;29;20498;-69
2022/03/21 06:26:05;;;;;;;149.18;66.95;;;-1.90;88.70;;;;;;4917051;29;20059;-69
2022/03/21 06:28:33;;;;;;;146.90;66.03;;;-1.90;88.80;;;;;;4933042;29;20513;-70
2022/03/21 06:31:01;;;;;;;161.18;68.70;;;-1.90;88.70;;;;;;4916659;29;20055;-69
2022/03/21 06:33:31;;;;;;;145.52;63.65;;;-1.80;88.60;;;;;;4913780;29;20059;-69
2022/03/21 06:36:02;;;;;;;163.80;68.72;;;-1.80;88.50;;;;;;4934394;29;20524;-71
2022/03/21 06:38:31;;;;;;;136.10;62.10;;;-1.80;88.60;;;;;;4930942;29;20385;-70
2022/03/21 06:41:00;;;;;;;130.00;62.95;;;-1.80;88.60;;;;;;4932825;29;21300;-69
2022/03/21 06:43:28;;;;;;;147.75;66.30;;;-1.80;88.60;;;;;;4916183;29;20051;-69
2022/03/21 06:46:05;;;;;;;154.25;68.22;;;-1.80;88.70;;;;;;4933414;29;20051;-69
2022/03/21 06:48:34;;;;;;;163.15;69.53;;;-1.80;88.70;;;;;;4934055;29;20490;-69
2022/03/21 06:51:02;;;;;;;143.52;66.50;;;-1.70;88.80;;;;;;4933143;29;20070;-69
2022/03/21 06:53:30;;;;;;;146.82;65.75;;;-1.70;88.80;;;;;;4933311;29;20050;-68
2022/03/21 06:55:57;;;;;;;139.27;65.20;;;-1.70;88.70;;;;;;4916562;29;20653;-68
2022/03/21 06:58:25;;;;;;;146.77;66.20;;;-1.60;88.70;;;;;;4932398;29;20067;-68
2022/03/21 07:00:52;;;;;;;162.52;69.75;;;-1.60;88.80;;;;;;4930028;29;20047;-69
2022/03/21 07:03:21;;;;;;;170.85;75.63;;;-1.50;88.80;;;;;;4931478;29;20052;-68
2022/03/21 07:05:48;;;;;;;148.95;71.40;;;-1.40;88.80;;;;;;4915459;29;20417;-70
2022/03/21 07:08:17;;;;;;;144.63;67.20;;;-1.40;88.70;;;;;;4932946;29;20043;-68
2022/03/21 07:10:45;;;;;;;154.10;68.25;;;-1.30;88.60;;;;;;4933456;29;20043;-68
2022/03/21 07:13:12;;;;;;;132.27;62.65;;;-1.20;88.60;;;;;;4931159;29;20059;-67
2022/03/21 07:15:40;;;;;;;152.23;68.68;;;-1.20;88.60;;;;;;4931363;29;20490;-68
2022/03/21 07:18:09;;;;;;;146.07;68.15;;;-1.10;88.60;;;;;;4931457;29;20052;-67
2022/03/21 07:20:37;;;;;;;141.95;67.68;;;-1.10;88.60;;;;;;4933132;29;20059;-70
2022/03/21 07:23:05;;;;;;;141.85;66.47;;;-1.10;88.60;;;;;;4915300;29;20047;-68
2022/03/21 07:25:32;;;;;;;152.50;69.35;;;-1.00;88.60;;;;;;4916061;29;20051;-69
2022/03/21 07:28:00;;;;;;;158.27;73.43;;;-1.00;88.60;;;;;;4912988;29;20051;-68
2022/03/21 07:30:28;;;;;;;155.00;73.43;;;-0.90;88.50;;;;;;4930792;29;20047;-68
2022/03/21 07:32:57;;;;;;;158.30;74.90;;;-0.70;88.60;;;;;;4929226;29;20044;-68
2022/03/21 07:35:25;;;;;;;157.55;76.22;;;-0.60;88.50;;;;;;4931441;29;20470;-68
2022/03/21 07:37:57;;;;;;;144.75;71.78;;;-0.50;88.50;;;;;;4930534;29;20058;-69
2022/03/21 07:40:26;;;;;;;187.30;85.50;;;-0.40;88.50;;;;;;4928447;29;20081;-68
2022/03/21 07:42:54;;;;;;;184.45;86.38;;;-0.20;88.40;;;;;;4916483;29;20052;-68
2022/03/21 07:48:11;;;;;;;217.25;98.90;;;0.00;88.30;;;;;;4930041;29;20043;-68
2022/03/21 07:50:41;;;;;;;229.15;101.57;;;0.10;88.20;;;;;;4931936;29;20121;-69
2022/03/21 07:53:10;;;;;;;229.32;102.78;;;0.20;88.20;;;;;;4916389;29;20036;-69
2022/03/21 07:55:37;;;;;;;215.35;97.13;;;0.40;88.20;;;;;;4935926;29;20056;-69
2022/03/21 07:58:05;;;;;;;198.60;97.35;;;0.60;88.30;;;;;;4937368;29;20058;-68
2022/03/21 08:00:32;;;;;;;187.57;92.15;;;0.80;88.40;;;;;;4936545;29;20054;-69
2022/03/21 08:03:00;;;;;;;179.93;89.03;;;1.00;88.30;;;;;;4937318;29;20528;-69
2022/03/21 08:05:28;;;;;;;167.18;82.18;;;1.20;88.20;;;;;;4935912;29;20044;-69
2022/03/21 08:07:56;;;;;;;145.80;77.30;;;1.30;88.10;;;;;;4932742;29;20051;-69
2022/03/21 08:10:24;;;;;;;145.90;74.57;;;1.50;88.10;;;;;;4935470;29;20538;-67
2022/03/21 08:12:52;;;;;;;132.40;69.78;;;1.60;88.00;;;;;;4935620;29;20040;-67
2022/03/21 08:15:20;;;;;;;132.10;67.95;;;1.80;88.00;;;;;;4936558;29;20517;-67
2022/03/21 08:17:57;;;;;;;127.55;67.05;;;1.90;88.00;;;;;;4936770;29;20051;-67
2022/03/21 08:20:33;;;;;;;123.82;65.72;;;2.00;87.90;;;;;;4936616;29;20051;-69
2022/03/21 08:23:05;;;;;;;119.32;63.80;;;2.20;87.80;;;;;;4936885;29;20566;-68
2022/03/21 08:25:35;;;;;;;114.07;61.42;;;2.30;87.80;;;;;;4920486;29;20429;-68
2022/03/21 08:28:04;;;;;;;109.75;61.40;;;2.40;87.80;;;;;;4937543;29;20047;-67
2022/03/21 08:30:34;;;;;;;96.57;56.55;;;2.60;87.60;;;;;;4920556;29;20055;-67
2022/03/21 08:33:04;;;;;;;100.68;56.65;;;2.60;87.50;;;;;;4937366;29;20055;-68
2022/03/21 08:35:32;;;;;;;100.38;53.90;;;2.80;87.50;;;;;;4904539;29;20078;-67
2022/03/21 08:38:00;;;;;;;97.75;53.42;;;2.90;87.40;;;;;;4936690;29;20058;-69
2022/03/21 08:40:28;;;;;;;90.20;51.88;;;3.00;87.30;;;;;;4937135;29;20046;-68
2022/03/21 08:42:56;;;;;;;103.65;52.75;;;3.10;87.10;;;;;;4920372;29;20494;-68
2022/03/21 08:45:24;;;;;;;89.03;50.22;;;3.20;87.00;;;;;;4937112;29;20043;-68
2022/03/21 08:47:53;;;;;;;89.47;50.35;;;3.30;86.90;;;;;;4937106;29;20052;-68
2022/03/21 08:50:27;;;;;;;86.05;47.80;;;3.30;86.70;;;;;;4937080;29;20047;-68
2022/03/21 08:52:57;;;;;;;74.85;46.78;;;3.50;86.60;;;;;;4936467;29;20048;-68
2022/03/21 08:55:25;;;;;;;87.18;46.70;;;3.60;86.50;;;;;;4937102;29;20044;-68
2022/03/21 08:57:53;;;;;;;76.60;44.40;;;3.80;86.40;;;;;;4919962;29;20047;-68
2022/03/21 09:00:21;;;;;;;72.95;44.55;;;4.00;86.10;;;;;;4937005;29;20054;-68
2022/03/21 09:02:49;;;;;;;70.53;40.67;;;4.20;85.90;;;;;;4919658;29;20048;-68
2022/03/21 09:05:19;;;;;;;72.60;41.45;;;4.40;85.60;;;;;;4936880;29;20374;-68
2022/03/21 09:07:47;;;;;;;60.50;38.10;;;4.60;85.20;;;;;;4936645;29;20047;-68
2022/03/21 09:10:15;;;;;;;74.70;36.83;;;4.90;84.80;;;;;;4936496;29;20051;-68
2022/03/21 09:12:43;;;;;;;62.60;34.75;;;5.20;84.20;;;;;;4936463;29;20497;-68
2022/03/21 09:15:11;;;;;;;55.63;31.75;;;5.50;83.50;;;;;;4919793;29;20040;-68
2022/03/21 09:17:39;;;;;;;55.17;32.90;;;5.80;82.60;;;;;;4918867;29;20417;-68
2022/03/21 09:20:07;;;;;;;53.92;31.23;;;6.10;81.80;;;;;;4919025;29;20393;-68
2022/03/21 09:22:35;;;;;;;46.22;28.73;;;6.40;80.50;;;;;;4919589;29;20056;-68
2022/03/21 09:25:04;;;;;;;48.83;29.23;;;6.60;79.30;;;;;;4919282;29;20061;-68
2022/03/21 09:27:31;;;;;;;44.17;28.02;;;6.80;77.70;;;;;;4935441;29;20070;-68
2022/03/21 09:29:59;;;;;;;48.42;28.50;;;7.00;76.80;;;;;;4936283;29;20044;-69
2022/03/21 09:32:27;;;;;;;43.85;28.27;;;7.10;76.00;;;;;;4934911;29;20060;-68
2022/03/21 09:34:54;;;;;;;45.95;29.48;;;7.30;75.30;;;;;;4901461;29;20523;-68
2022/03/21 09:37:22;;;;;;;43.08;28.35;;;7.50;74.80;;;;;;4917495;29;20058;-67
2022/03/21 09:39:50;;;;;;;49.78;29.58;;;7.60;73.40;;;;;;4934322;29;20043;-68
2022/03/21 09:42:20;;;;;;;47.45;26.60;;;7.80;72.90;;;;;;4934317;29;20433;-67
2022/03/21 09:44:52;;;;;;;42.92;26.10;;;7.80;72.20;;;;;;4934390;29;20048;-68
2022/03/21 09:50:13;;;;;;;41.35;25.55;;;8.00;70.20;;;;;;4936012;29;20052;-67
2022/03/21 09:52:42;;;;;;;43.90;24.77;;;8.00;70.50;;;;;;4935788;29;20051;-68
2022/03/21 09:55:10;;;;;;;41.63;23.70;;;8.10;69.20;;;;;;4935294;29;20051;-70
2022/03/21 09:57:37;;;;;;;34.70;23.02;;;8.10;68.60;;;;;;4935688;29;20070;-71
2022/03/21 10:00:07;;;;;;;42.38;24.00;;;8.10;67.90;;;;;;4935963;29;20406;-68
2022/03/21 10:02:41;;;;;;;36.92;22.92;;;8.20;67.80;;;;;;4935829;29;20054;-67
2022/03/21 10:05:34;;;;;;;35.45;21.35;;;8.20;66.50;;;;;;4935367;29;20051;-67
2022/03/21 10:08:17;;;;;;;31.33;21.25;;;8.20;67.00;;;;;;4916770;29;20048;-69
2022/03/21 10:11:03;;;;;;;37.28;21.17;;;8.30;66.00;;;;;;4925972;29;20059;-67
2022/03/21 10:13:32;;;;;;;38.25;20.25;;;8.30;65.70;;;;;;4935308;29;20391;-68
2022/03/21 10:16:10;;;;;;;36.50;20.63;;;8.50;64.10;;;;;;4934817;29;20516;-68
2022/03/21 10:19:00;;;;;;;35.53;20.50;;;8.70;63.00;;;;;;4935311;29;20055;-68
2022/03/21 10:21:29;;;;;;;28.42;17.88;;;8.80;61.80;;;;;;4934163;29;20075;-68
2022/03/21 10:24:07;;;;;;;33.97;19.10;;;8.80;61.10;;;;;;4934826;29;20797;-68
2022/03/21 10:26:42;;;;;;;36.22;18.67;;;8.90;59.90;;;;;;4933354;29;20043;-68
2022/03/21 10:29:15;;;;;;;35.53;18.95;;;9.00;59.80;;;;;;4935345;29;20398;-68
2022/03/21 10:31:46;;;;;;;39.78;19.13;;;9.20;58.40;;;;;;4917309;29;20063;-67
2022/03/21 10:34:17;;;;;;;73.75;21.60;;;9.30;56.40;;;;;;4935199;29;20044;-68
2022/03/21 10:37:08;;;;;;;28.52;17.42;;;9.30;56.30;;;;;;4928725;29;20048;-67
2022/03/21 10:39:38;;;;;;;30.75;19.27;;;9.30;55.70;;;;;;4934535;29;20048;-68
2022/03/21 10:42:12;;;;;;;31.85;18.25;;;9.30;56.00;;;;;;4917297;29;20055;-68
2022/03/21 10:44:40;;;;;;;30.10;17.00;;;9.40;55.80;;;;;;4933030;29;20044;-68
2022/03/21 10:47:09;;;;;;;34.92;18.17;;;9.40;55.10;;;;;;4933169;29;20052;-68
2022/03/21 10:49:40;;;;;;;27.45;18.13;;;9.50;54.90;;;;;;4921895;29;20059;-68
2022/03/21 10:52:14;;;;;;;31.33;17.92;;;9.50;53.10;;;;;;4916069;29;20052;-68
2022/03/21 10:54:48;;;;;;;;;;;9.40;53.70;;;;;;4930822;29;20055;-68
2022/03/21 10:57:32;;;;;;;28.55;16.80;;;9.40;54.20;;;;;;4932336;29;19922;-68
2022/03/21 11:00:21;;;;;;;25.70;15.10;;;9.50;54.60;;;;;;4915090;29;20648;-67
2022/03/21 11:02:56;;;;;;;26.02;15.98;;;9.50;53.40;;;;;;4932363;29;20063;-68
2022/03/21 11:05:26;;;;;;;23.73;15.55;;;9.50;52.70;;;;;;4932828;29;20051;-67
2022/03/21 11:07:54;;;;;;;26.60;15.65;;;9.60;53.00;;;;;;4916288;29;20048;-68
2022/03/21 11:10:23;;;;;;;23.85;15.63;;;9.80;53.00;;;;;;4915429;29;20059;-67
2022/03/21 11:12:53;;;;;;;28.58;16.33;;;9.90;52.10;;;;;;4931047;29;20398;-67
2022/03/21 11:15:21;;;;;;;27.50;15.48;;;10.10;51.70;;;;;;4917664;29;20058;-69
2022/03/21 11:17:48;;;;;;;26.08;15.10;;;10.30;49.10;;;;;;4917633;29;20043;-68
2022/03/21 11:20:16;;;;;;;26.40;15.73;;;10.50;48.90;;;;;;4934675;29;20036;-68
2022/03/21 11:22:44;;;;;;;24.60;14.38;;;10.70;49.20;;;;;;4933434;29;20058;-69
2022/03/21 11:25:15;;;;;;;25.45;14.65;;;11.00;48.40;;;;;;4934639;29;20051;-68
2022/03/21 11:28:06;;;;;;;22.98;14.50;;;11.30;48.50;;;;;;4919077;29;20052;-68
2022/03/21 11:31:04;;;;;;;89.30;17.95;;;11.70;46.80;;;;;;4920508;29;20047;-68
2022/03/21 11:33:37;;;;;;;24.42;14.20;;;12.00;45.20;;;;;;4938376;29;20469;-69
2022/03/21 11:36:10;;;;;;;24.73;14.20;;;12.30;43.10;;;;;;4937816;29;20047;-68
2022/03/21 11:38:45;;;;;;;24.00;14.82;;;12.30;43.40;;;;;;4938337;29;20074;-69
2022/03/21 11:41:32;;;;;;;28.38;15.68;;;12.30;42.80;;;;;;4921201;29;20063;-68
2022/03/21 11:44:06;;;;;;;24.63;14.80;;;12.20;43.20;;;;;;4938471;29;20074;-69
2022/03/21 11:46:36;;;;;;;25.35;15.48;;;12.00;43.90;;;;;;4938244;29;20047;-69
2022/03/21 11:49:25;;;;;;;23.77;15.45;;;11.80;43.90;;;;;;4937992;29;20059;-69
2022/03/21 11:52:00;;;;;;;34.17;17.65;;;11.80;44.40;;;;;;4938120;29;20124;-69
2022/03/21 11:54:36;;;;;;;27.58;15.68;;;11.80;44.60;;;;;;4938175;29;20047;-68
2022/03/21 11:57:09;;;;;;;26.83;16.08;;;11.80;44.60;;;;;;4937394;29;20059;-68
2022/03/21 11:59:38;;;;;;;24.65;16.58;;;11.80;44.60;;;;;;4921161;29;20047;-68
2022/03/21 12:02:12;;;;;;;29.65;16.77;;;11.80;45.20;;;;;;4920520;29;20059;-68
2022/03/21 12:04:42;;;;;;;30.27;17.42;;;11.80;45.50;;;;;;4921270;29;20062;-68
2022/03/21 12:07:12;;;;;;;28.38;16.95;;;11.70;45.90;;;;;;4938043;29;20051;-69
2022/03/21 12:09:42;;;;;;;31.38;17.58;;;11.80;46.00;;;;;;4920689;29;20063;-68
2022/03/21 12:12:11;;;;;;;27.83;18.15;;;11.80;46.00;;;;;;4936961;29;20391;-68
2022/03/21 12:14:46;;;;;;;29.98;18.20;;;11.70;46.80;;;;;;4937876;29;20513;-69
2022/03/21 12:17:14;;;;;;;31.55;18.73;;;11.80;46.80;;;;;;4936367;29;20691;-68
2022/03/21 12:20:02;;;;;;;23.90;17.40;;;11.80;47.20;;;;;;4929227;29;20486;-68
2022/03/21 12:22:53;;;;;;;28.00;17.52;;;11.80;47.30;;;;;;4929271;29;20036;-69
2022/03/21 12:25:30;;;;;;;31.88;19.88;;;11.80;47.40;;;;;;4932899;29;20048;-69
2022/03/21 12:28:16;;;;;;;31.08;19.30;;;11.80;47.60;;;;;;4934463;29;20044;-69
2022/03/21 12:30:48;;;;;;;;;;;11.80;47.60;;;;;;4937937;29;20070;-69
2022/03/21 12:33:16;;;;;;;30.02;18.80;;;11.80;47.70;;;;;;4934943;29;19923;-69
2022/03/21 12:35:45;;;;;;;31.83;18.65;;;11.70;47.90;;;;;;4935926;29;20059;-69
2022/03/21 12:38:34;;;;;;;32.40;19.13;;;11.70;48.20;;;;;;4933861;29;20066;-69
2022/03/21 12:41:08;;;;;;;30.85;19.05;;;11.70;48.30;;;;;;4918269;29;20055;-70
2022/03/21 12:43:54;;;;;;;31.83;19.55;;;11.60;48.20;;;;;;4937392;29;20048;-70
2022/03/21 12:46:24;;;;;;;33.38;19.42;;;11.50;48.50;;;;;;4920118;29;20059;-70
2022/03/21 12:48:58;;;;;;;33.60;19.92;;;11.40;48.70;;;;;;4935876;29;20052;-69
2022/03/21 12:51:33;;;;;;;34.00;20.17;;;11.50;49.00;;;;;;4937145;29;20051;-71
2022/03/21 12:54:24;;;;;;;30.88;20.27;;;11.40;48.90;;;;;;4936385;29;20067;-69
2022/03/21 12:57:06;;;;;;;34.45;20.65;;;11.40;49.20;;;;;;4935653;29;20138;-69
2022/03/21 12:59:36;;;;;;;37.97;19.60;;;11.30;49.50;;;;;;4934271;29;20063;-70
2022/03/21 13:02:04;;;;;;;35.03;20.40;;;11.30;49.50;;;;;;4917243;29;20056;-70
2022/03/21 13:10:32;;;;;;;32.90;19.13;;;11.30;49.80;;;;;;4935020;29;20059;-69
2022/03/21 13:13:04;;;;;;;38.25;19.13;;;11.30;49.60;;;;;;4936631;29;20044;-69